Time;durP1;ratioP1;P1;durP2;ratioP2;P2;SDS_P1;SDS_P2;PMS_P1;PMS_P2;Temp;Humidity;BMP_temperature;BMP_pressure;BME280_temperature;BME280_humidity;BME280_pressure;Samples;Min_cycle;Max_cycle;Signal;HPM_P1;HPM_P2
2023/01/19 00:02:19;;;;;;;2.97;0.40;;;4.50;83.10;;;;;;5054970;28;20036;-81
2023/01/19 00:04:45;;;;;;;1.13;0.57;;;4.50;83.00;;;;;;5054508;28;20048;-81
2023/01/19 00:07:11;;;;;;;2.33;0.43;;;4.50;83.10;;;;;;5055050;28;20106;-81
2023/01/19 00:09:45;;;;;;;1.85;0.50;;;4.60;83.20;;;;;;5038752;28;20128;-81
2023/01/19 00:12:10;;;;;;;2.50;0.50;;;4.60;83.20;;;;;;5038721;28;20124;-75
2023/01/19 00:14:36;;;;;;;1.85;0.50;;;4.60;83.20;;;;;;5053548;28;20483;-81
2023/01/19 00:17:02;;;;;;;2.33;0.30;;;4.60;83.20;;;;;;5054471;28;20037;-81
2023/01/19 00:19:28;;;;;;;1.38;0.50;;;4.70;83.20;;;;;;5037978;28;20037;-81
2023/01/19 00:21:54;;;;;;;2.03;0.68;;;4.70;83.20;;;;;;5038120;28;20314;-81
2023/01/19 00:24:20;;;;;;;1.45;0.40;;;4.60;83.10;;;;;;5054661;28;20460;-81
2023/01/19 00:26:46;;;;;;;1.92;0.60;;;4.80;83.10;;;;;;5037518;28;20029;-81
2023/01/19 00:29:12;;;;;;;3.95;1.20;;;4.60;82.90;;;;;;5054207;28;20037;-81
2023/01/19 00:31:38;;;;;;;3.17;0.60;;;4.60;82.80;;;;;;5037557;28;20041;-75
2023/01/19 00:34:05;;;;;;;2.72;0.82;;;4.60;82.60;;;;;;5053120;28;20102;-74
2023/01/19 00:36:31;;;;;;;1.42;0.73;;;4.50;82.40;;;;;;5053203;28;20044;-74
2023/01/19 00:38:57;;;;;;;1.90;1.08;;;4.50;82.40;;;;;;5036982;28;20074;-74
2023/01/19 00:42:38;;;;;;;1.42;0.85;;;4.50;82.30;;;;;;5053704;28;20120;-74
2023/01/19 00:44:09;;;;;;;2.28;1.02;;;4.50;82.10;;;;;;5053386;28;20037;-75
2023/01/19 00:46:35;;;;;;;1.55;1.00;;;4.40;81.90;;;;;;5036872;28;20415;-74
2023/01/19 00:49:01;;;;;;;3.17;0.90;;;4.50;81.90;;;;;;5035506;28;20045;-75
2023/01/19 00:51:26;;;;;;;2.78;1.00;;;4.40;81.80;;;;;;5052863;28;20029;-75
2023/01/19 00:53:52;;;;;;;1.65;1.02;;;4.40;81.70;;;;;;5032868;28;20121;-75
2023/01/19 00:56:18;;;;;;;1.20;0.95;;;4.70;81.90;;;;;;5022806;28;20037;-74
2023/01/19 00:58:46;;;;;;;1.90;1.10;;;4.30;81.70;;;;;;5027961;28;20029;-74
2023/01/19 01:01:12;;;;;;;2.30;1.35;;;4.40;81.70;;;;;;5070029;28;20380;-74
2023/01/19 01:03:38;;;;;;;1.83;1.13;;;4.40;81.70;;;;;;5036355;28;20111;-74
2023/01/19 01:06:07;;;;;;;1.70;1.17;;;4.40;81.60;;;;;;5068792;28;20036;-74
2023/01/19 01:08:33;;;;;;;2.08;1.30;;;4.30;81.50;;;;;;5061667;28;20099;-74
2023/01/19 01:10:59;;;;;;;1.67;1.13;;;4.30;81.50;;;;;;5053287;28;20045;-74
2023/01/19 01:13:25;;;;;;;2.00;1.20;;;4.30;81.50;;;;;;5052826;28;20124;-74
2023/01/19 01:15:52;;;;;;;2.60;1.15;;;4.30;81.50;;;;;;5036002;28;20511;-75
2023/01/19 01:18:18;;;;;;;3.97;1.33;;;4.30;81.60;;;;;;5053074;28;20080;-75
2023/01/19 01:20:44;;;;;;;2.47;1.27;;;4.30;81.60;;;;;;5052545;28;20076;-75
2023/01/19 01:23:10;;;;;;;2.58;1.42;;;4.30;81.60;;;;;;5052389;28;20072;-75
2023/01/19 01:25:37;;;;;;;2.45;1.70;;;4.30;81.60;;;;;;5052437;28;20465;-75
2023/01/19 01:28:05;;;;;;;3.10;1.90;;;4.30;81.60;;;;;;5036136;28;20129;-75
2023/01/19 01:30:31;;;;;;;3.75;2.08;;;4.30;81.60;;;;;;5052456;28;20178;-75
2023/01/19 01:32:57;;;;;;;4.32;2.30;;;4.30;81.60;;;;;;5052574;28;20131;-75
2023/01/19 01:35:23;;;;;;;3.67;2.50;;;4.30;81.60;;;;;;5035361;28;20033;-75
2023/01/19 01:37:48;;;;;;;3.25;2.20;;;4.30;81.60;;;;;;5035890;28;20044;-75
2023/01/19 01:40:16;;;;;;;2.88;2.10;;;4.20;81.60;;;;;;5035416;28;20036;-75
2023/01/19 01:42:42;;;;;;;2.65;2.17;;;4.20;81.50;;;;;;5035414;28;20045;-75
2023/01/19 01:45:39;;;;;;;4.72;3.05;;;4.20;81.60;;;;;;5051878;28;20040;-75
2023/01/19 01:48:07;;;;;;;4.50;2.78;;;4.20;81.60;;;;;;5061052;28;20155;-75
2023/01/19 01:50:37;;;;;;;4.43;2.83;;;4.20;81.60;;;;;;5035821;28;20400;-75
2023/01/19 01:53:12;;;;;;;3.75;2.70;;;4.20;81.70;;;;;;5052146;28;20051;-75
2023/01/19 01:55:44;;;;;;;4.40;2.75;;;4.20;81.70;;;;;;5051790;28;20055;-75
2023/01/19 01:58:11;;;;;;;4.47;2.80;;;4.20;81.70;;;;;;5051969;28;20376;-75
2023/01/19 02:03:24;;;;;;;3.50;3.00;;;4.10;81.80;;;;;;5036367;28;20064;-75
2023/01/19 02:05:51;;;;;;;5.75;3.50;;;4.20;81.90;;;;;;5051055;28;20048;-75
2023/01/19 02:14:03;;;;;;;6.10;4.40;;;4.10;82.10;;;;;;5037356;28;20077;-75
2023/01/19 02:16:29;;;;;;;5.35;4.38;;;4.20;82.20;;;;;;5051278;28;20041;-75
2023/01/19 02:18:56;;;;;;;6.60;4.30;;;4.10;82.20;;;;;;5035007;28;20040;-75
2023/01/19 02:21:30;;;;;;;8.30;4.68;;;4.10;82.30;;;;;;5051828;28;20128;-75
2023/01/19 02:23:59;;;;;;;6.73;4.87;;;4.10;82.40;;;;;;5051525;28;20079;-75
2023/01/19 02:26:33;;;;;;;6.22;4.40;;;4.20;82.50;;;;;;5051212;28;20072;-75
2023/01/19 02:29:07;;;;;;;6.15;3.83;;;4.10;82.60;;;;;;5051251;28;20729;-75
2023/01/19 02:31:34;;;;;;;5.80;3.67;;;4.10;82.70;;;;;;5050940;28;20040;-75
2023/01/19 02:34:01;;;;;;;5.40;4.13;;;4.10;82.70;;;;;;5051275;28;20072;-75
2023/01/19 02:36:48;;;;;;;7.20;3.75;;;4.20;82.90;;;;;;5051294;28;20041;-75
2023/01/19 02:39:18;;;;;;;4.88;3.10;;;4.20;83.00;;;;;;5051343;28;20072;-75
2023/01/19 02:41:58;;;;;;;5.38;3.08;;;4.30;83.10;;;;;;5035045;28;20029;-75
2023/01/19 02:44:25;;;;;;;4.20;2.42;;;4.20;83.00;;;;;;5031407;28;20496;-75
2023/01/19 02:46:53;;;;;;;5.95;3.10;;;4.20;83.00;;;;;;5046985;28;20399;-75
2023/01/19 02:49:18;;;;;;;3.58;2.45;;;4.20;83.10;;;;;;5049681;28;20033;-75
2023/01/19 02:51:44;;;;;;;3.42;2.13;;;4.20;83.10;;;;;;5051074;28;20044;-75
2023/01/19 02:54:13;;;;;;;3.83;2.20;;;4.30;83.10;;;;;;5034753;28;20137;-74
2023/01/19 02:56:45;;;;;;;3.42;1.70;;;4.30;83.10;;;;;;5034331;28;20496;-74
2023/01/19 02:59:23;;;;;;;4.78;1.95;;;4.30;83.20;;;;;;5034224;28;20063;-75
2023/01/19 03:02:19;;;;;;;4.80;1.60;;;4.30;83.30;;;;;;5051354;28;20440;-74
2023/01/19 03:05:14;;;;;;;4.32;1.63;;;4.30;83.30;;;;;;5034051;28;20053;-75
2023/01/19 03:07:40;;;;;;;3.35;1.35;;;4.30;83.30;;;;;;5048716;28;20099;-75
2023/01/19 03:10:29;;;;;;;4.20;1.73;;;4.30;83.40;;;;;;5050740;28;20495;-75
2023/01/19 03:13:04;;;;;;;3.90;1.50;;;4.30;83.40;;;;;;5055359;28;20073;-75
2023/01/19 03:15:35;;;;;;;3.78;1.10;;;4.30;83.40;;;;;;5054983;28;20131;-75
2023/01/19 03:18:05;;;;;;;5.15;0.98;;;4.30;83.40;;;;;;5038180;28;20087;-74
2023/01/19 03:20:31;;;;;;;4.93;1.10;;;4.30;83.50;;;;;;5038279;28;20088;-75
2023/01/19 03:23:04;;;;;;;2.97;0.60;;;4.30;83.50;;;;;;5054758;28;20041;-75
2023/01/19 03:25:35;;;;;;;2.22;0.50;;;4.40;83.70;;;;;;5038429;28;20099;-75
2023/01/19 03:28:02;;;;;;;2.85;0.52;;;4.30;83.50;;;;;;5054854;28;20041;-75
2023/01/19 03:30:38;;;;;;;3.30;0.82;;;4.30;83.50;;;;;;5038079;28;20036;-74
2023/01/19 03:33:26;;;;;;;2.40;0.80;;;4.30;83.50;;;;;;5038246;28;20048;-74
2023/01/19 03:36:02;;;;;;;3.60;0.90;;;4.60;83.80;;;;;;5054877;28;20361;-75
2023/01/19 03:38:34;;;;;;;3.13;0.98;;;4.40;83.60;;;;;;5069439;28;20214;-74
2023/01/19 03:41:07;;;;;;;0.40;0.40;;;4.40;83.60;;;;;;5070971;28;20103;-75
2023/01/19 03:43:34;;;;;;;1.35;0.50;;;4.40;83.60;;;;;;5037845;28;20041;-74
2023/01/19 03:46:03;;;;;;;1.10;0.40;;;4.40;83.70;;;;;;5037952;28;20546;-75
2023/01/19 03:48:30;;;;;;;0.82;0.52;;;4.40;83.70;;;;;;5037975;28;20119;-75
2023/01/19 03:50:56;;;;;;;1.60;0.43;;;4.40;83.70;;;;;;5037383;28;20047;-75
2023/01/19 03:53:22;;;;;;;0.60;0.50;;;4.40;83.60;;;;;;5021482;28;20079;-75
2023/01/19 03:55:49;;;;;;;1.58;0.63;;;4.70;83.80;;;;;;5053730;28;20036;-74
2023/01/19 03:58:16;;;;;;;1.88;0.60;;;4.50;83.70;;;;;;5054399;28;20041;-75
2023/01/19 04:00:41;;;;;;;3.38;0.60;;;4.50;83.60;;;;;;5024388;28;20076;-74
2023/01/19 04:03:13;;;;;;;1.08;0.40;;;4.50;83.60;;;;;;5046826;28;20547;-75
2023/01/19 04:05:38;;;;;;;1.70;0.52;;;4.50;83.70;;;;;;5054365;28;20383;-75
2023/01/19 04:08:05;;;;;;;1.75;0.88;;;4.50;83.60;;;;;;5054276;28;20044;-74
2023/01/19 04:10:30;;;;;;;1.15;0.40;;;4.50;83.50;;;;;;5037474;28;20090;-75
2023/01/19 04:13:00;;;;;;;2.00;0.70;;;4.50;83.40;;;;;;5054303;28;20128;-75
2023/01/19 04:15:27;;;;;;;0.90;0.57;;;4.60;83.50;;;;;;5037385;28;20152;-75
2023/01/19 04:17:53;;;;;;;2.15;1.00;;;4.60;83.30;;;;;;5036667;28;20458;-75
2023/01/19 04:20:20;;;;;;;1.02;0.60;;;4.60;83.30;;;;;;5017434;28;20103;-75
2023/01/19 04:22:46;;;;;;;3.20;0.80;;;4.60;83.20;;;;;;5050838;28;20053;-75
2023/01/19 04:25:12;;;;;;;2.10;0.77;;;4.70;83.20;;;;;;5034021;28;20041;-75
2023/01/19 04:27:38;;;;;;;3.35;0.88;;;4.60;83.10;;;;;;5017390;28;20078;-74
2023/01/19 04:30:04;;;;;;;2.47;1.10;;;4.60;83.10;;;;;;5053336;28;20045;-81
2023/01/19 04:32:31;;;;;;;6.55;1.20;;;4.60;83.00;;;;;;5037543;28;20052;-81
2023/01/19 04:34:57;;;;;;;3.38;1.25;;;4.70;83.10;;;;;;5054224;28;20033;-81
2023/01/19 04:37:23;;;;;;;2.85;0.98;;;4.60;82.90;;;;;;5071486;28;20136;-81
2023/01/19 04:39:49;;;;;;;7.28;1.50;;;4.60;82.90;;;;;;5037962;28;20125;-81
2023/01/19 04:42:15;;;;;;;6.38;1.23;;;4.70;83.10;;;;;;5037740;28;20492;-75
2023/01/19 04:44:41;;;;;;;6.57;1.55;;;4.60;83.10;;;;;;5069616;28;20480;-75
2023/01/19 04:47:07;;;;;;;8.88;1.27;;;4.70;83.30;;;;;;5036784;28;20040;-75
2023/01/19 04:49:36;;;;;;;8.00;1.17;;;4.70;83.50;;;;;;5053308;28;20029;-75
2023/01/19 04:52:05;;;;;;;9.93;1.55;;;4.70;83.60;;;;;;5020928;28;20041;-75
2023/01/19 04:54:31;;;;;;;8.02;1.20;;;4.70;83.90;;;;;;5036822;28;20123;-75
2023/01/19 04:56:56;;;;;;;7.75;1.50;;;4.70;84.00;;;;;;5036498;28;20128;-75
2023/01/19 04:59:22;;;;;;;8.68;1.20;;;4.80;84.30;;;;;;5036529;28;20112;-74
2023/01/19 05:01:48;;;;;;;4.68;0.68;;;4.80;84.30;;;;;;5053485;28;20396;-75
2023/01/19 05:04:14;;;;;;;4.07;0.75;;;4.80;84.50;;;;;;5052792;28;20101;-75
2023/01/19 05:06:40;;;;;;;7.18;0.98;;;4.80;84.50;;;;;;5053220;28;20037;-75
2023/01/19 05:09:07;;;;;;;3.65;0.70;;;5.00;84.70;;;;;;5052958;28;20084;-74
2023/01/19 05:11:34;;;;;;;6.53;0.90;;;4.80;84.60;;;;;;5052279;28;20060;-75
2023/01/19 05:14:00;;;;;;;9.45;1.95;;;4.80;84.60;;;;;;5036088;28;20067;-75
2023/01/19 05:16:25;;;;;;;5.03;0.52;;;4.90;84.70;;;;;;5053192;28;20230;-76
2023/01/19 05:18:51;;;;;;;7.82;1.52;;;4.90;84.70;;;;;;5036050;28;20119;-75
2023/01/19 05:21:17;;;;;;;3.63;0.65;;;4.90;84.70;;;;;;5052733;28;20044;-75
2023/01/19 05:23:43;;;;;;;5.03;1.02;;;4.90;84.70;;;;;;5035625;28;20070;-76
2023/01/19 05:26:09;;;;;;;4.65;1.08;;;4.80;84.70;;;;;;5052470;28;20049;-75
2023/01/19 05:28:36;;;;;;;4.15;0.60;;;4.90;84.70;;;;;;5052441;28;20476;-75
2023/01/19 05:31:01;;;;;;;5.72;0.40;;;4.90;84.80;;;;;;5019835;28;20380;-75
2023/01/19 05:33:27;;;;;;;3.30;0.80;;;4.90;85.20;;;;;;5035204;28;20036;-75
2023/01/19 05:35:54;;;;;;;7.68;1.00;;;4.90;84.70;;;;;;5035779;28;20068;-75
2023/01/19 05:38:20;;;;;;;5.13;1.08;;;4.90;84.70;;;;;;5052566;28;20033;-75
2023/01/19 05:40:46;;;;;;;5.68;1.00;;;4.90;84.70;;;;;;5052539;28;20045;-75
2023/01/19 05:43:14;;;;;;;7.22;0.95;;;4.90;84.60;;;;;;5052108;28;20036;-75
2023/01/19 05:45:40;;;;;;;5.53;0.50;;;4.90;84.60;;;;;;5052306;28;20045;-75
2023/01/19 05:48:07;;;;;;;3.58;0.70;;;4.90;84.50;;;;;;5035878;28;20135;-75
2023/01/19 05:50:33;;;;;;;2.78;0.60;;;4.90;84.40;;;;;;5036176;28;20357;-76
2023/01/19 05:53:00;;;;;;;6.90;1.00;;;4.90;84.20;;;;;;5051839;28;20060;-75
2023/01/19 05:55:26;;;;;;;3.92;0.85;;;4.90;84.10;;;;;;5051422;28;20557;-75
2023/01/19 05:57:52;;;;;;;5.60;0.77;;;4.80;83.80;;;;;;5041148;28;20497;-75
2023/01/19 06:00:18;;;;;;;4.22;0.77;;;4.80;83.60;;;;;;5051408;28;20047;-75
2023/01/19 06:02:45;;;;;;;1.48;0.47;;;4.80;83.40;;;;;;5034912;28;20102;-74
2023/01/19 06:05:11;;;;;;;5.50;1.00;;;4.80;83.40;;;;;;5035290;28;20092;-75
2023/01/19 06:07:37;;;;;;;3.17;0.68;;;4.70;83.20;;;;;;5035512;28;20396;-75
2023/01/19 06:10:02;;;;;;;5.50;1.00;;;4.80;83.00;;;;;;5015573;28;20120;-75
2023/01/19 06:12:28;;;;;;;10.13;1.40;;;4.70;82.80;;;;;;5048399;28;20127;-75
2023/01/19 06:14:54;;;;;;;5.75;0.80;;;4.70;82.70;;;;;;5051935;28;20503;-75
2023/01/19 06:17:19;;;;;;;6.43;0.88;;;4.60;82.60;;;;;;5035212;28;20039;-75
2023/01/19 06:19:45;;;;;;;6.78;1.13;;;4.60;82.50;;;;;;5018833;28;20029;-75
2023/01/19 06:22:11;;;;;;;12.70;1.00;;;4.60;82.40;;;;;;5034950;28;20033;-75
2023/01/19 06:24:36;;;;;;;10.35;3.10;;;4.50;82.40;;;;;;5034738;28;20041;-75
2023/01/19 06:27:02;;;;;;;10.40;2.25;;;4.60;82.50;;;;;;5034987;28;20039;-75
2023/01/19 06:29:28;;;;;;;15.90;5.68;;;4.50;82.50;;;;;;5035046;28;20530;-75
2023/01/19 06:31:54;;;;;;;11.95;3.53;;;4.50;82.50;;;;;;5051230;28;20040;-75
2023/01/19 06:34:20;;;;;;;9.43;3.22;;;4.50;82.60;;;;;;5051314;28;20041;-74
2023/01/19 06:36:46;;;;;;;11.13;2.50;;;4.40;82.60;;;;;;5051063;28;20670;-75
2023/01/19 06:39:12;;;;;;;10.68;2.03;;;4.40;82.70;;;;;;5049842;28;20037;-75
2023/01/19 06:41:38;;;;;;;12.93;2.05;;;4.40;82.80;;;;;;5051279;28;20041;-75
2023/01/19 06:44:04;;;;;;;14.70;2.47;;;4.40;82.90;;;;;;5051677;28;20033;-75
2023/01/19 06:46:29;;;;;;;9.32;1.85;;;4.40;83.00;;;;;;5017656;28;20045;-75
2023/01/19 06:48:55;;;;;;;9.57;1.75;;;4.30;83.10;;;;;;5051637;28;20114;-75
2023/01/19 06:51:22;;;;;;;8.88;1.60;;;4.40;83.20;;;;;;5034261;28;20431;-75
2023/01/19 06:53:48;;;;;;;13.25;2.28;;;4.40;83.30;;;;;;5051240;28;20128;-82
2023/01/19 06:56:13;;;;;;;12.63;2.53;;;4.30;83.20;;;;;;5052126;28;20037;-81
2023/01/19 06:58:40;;;;;;;13.23;2.40;;;4.30;83.20;;;;;;5035210;28;20060;-81
2023/01/19 07:01:07;;;;;;;14.52;1.98;;;4.30;83.30;;;;;;5052181;28;20056;-82
2023/01/19 07:03:33;;;;;;;9.38;1.77;;;4.30;83.40;;;;;;5051939;28;20496;-82
2023/01/19 07:06:01;;;;;;;11.85;1.48;;;4.30;83.50;;;;;;5052301;28;20055;-81
2023/01/19 07:08:28;;;;;;;11.32;2.53;;;4.30;83.50;;;;;;5035874;28;20049;-81
2023/01/19 07:11:05;;;;;;;10.55;2.38;;;4.30;83.50;;;;;;5051333;28;20053;-74
2023/01/19 07:13:32;;;;;;;14.25;2.13;;;4.30;83.60;;;;;;5034519;28;20045;-76
2023/01/19 07:16:02;;;;;;;11.80;2.13;;;4.30;83.50;;;;;;5051161;28;20041;-76
2023/01/19 07:18:27;;;;;;;8.07;1.77;;;4.30;83.50;;;;;;5034284;28;20033;-75
2023/01/19 07:20:56;;;;;;;7.50;1.48;;;4.30;83.50;;;;;;5034396;28;20043;-75
2023/01/19 07:23:22;;;;;;;6.40;1.65;;;4.30;83.50;;;;;;5014108;28;20539;-74
2023/01/19 07:25:47;;;;;;;11.50;1.98;;;4.30;83.40;;;;;;5015065;28;20049;-74
2023/01/19 07:28:14;;;;;;;9.50;1.70;;;4.30;83.30;;;;;;5031204;28;20434;-75
2023/01/19 07:30:45;;;;;;;10.65;2.00;;;4.30;83.20;;;;;;5047732;28;20129;-74
2023/01/19 07:33:11;;;;;;;10.45;1.83;;;4.30;83.10;;;;;;5031715;28;20053;-75
2023/01/19 07:35:37;;;;;;;11.98;1.60;;;4.20;82.90;;;;;;5034448;28;20040;-80
2023/01/19 07:38:03;;;;;;;7.93;1.40;;;4.30;82.80;;;;;;5034840;28;20130;-76
2023/01/19 07:40:28;;;;;;;15.32;2.33;;;4.30;82.80;;;;;;5034394;28;20037;-76
2023/01/19 07:42:54;;;;;;;14.50;1.55;;;4.20;82.80;;;;;;5050908;28;20502;-76
2023/01/19 07:45:20;;;;;;;11.60;1.52;;;4.20;82.80;;;;;;5034391;28;20040;-75
2023/01/19 07:47:47;;;;;;;9.27;1.80;;;4.30;82.90;;;;;;5034224;28;20044;-76
2023/01/19 07:50:15;;;;;;;11.35;1.70;;;4.20;82.90;;;;;;5050672;28;20510;-76
2023/01/19 07:52:41;;;;;;;11.50;1.85;;;4.20;82.80;;;;;;5050751;28;20083;-76
2023/01/19 07:55:08;;;;;;;7.93;1.42;;;4.30;82.80;;;;;;5050533;28;20049;-76
2023/01/19 07:57:34;;;;;;;11.65;1.88;;;4.30;82.70;;;;;;5052124;28;20541;-76
2023/01/19 07:59:59;;;;;;;6.07;1.55;;;4.30;82.70;;;;;;5037779;28;20073;-76
2023/01/19 08:02:25;;;;;;;15.05;1.70;;;4.40;82.60;;;;;;5054372;28;20080;-76
2023/01/19 08:04:51;;;;;;;14.93;2.40;;;4.30;82.60;;;;;;5054007;28;20122;-76
2023/01/19 08:07:17;;;;;;;20.23;3.63;;;4.30;82.70;;;;;;5037648;28;20114;-76
2023/01/19 08:09:42;;;;;;;14.93;2.17;;;4.40;82.70;;;;;;5054231;28;20045;-76
2023/01/19 08:12:08;;;;;;;12.00;1.77;;;4.40;82.70;;;;;;5054378;28;20076;-76
2023/01/19 08:14:34;;;;;;;9.55;2.97;;;4.40;82.70;;;;;;5037430;28;20116;-76
2023/01/19 08:17:00;;;;;;;14.07;2.10;;;4.40;82.60;;;;;;5037256;28;20037;-76
2023/01/19 08:19:27;;;;;;;14.23;1.83;;;4.50;82.60;;;;;;5037483;28;20044;-76
2023/01/19 08:21:53;;;;;;;7.93;2.00;;;4.40;82.50;;;;;;5071006;28;20037;-76
2023/01/19 08:24:21;;;;;;;12.30;2.08;;;4.40;82.40;;;;;;5054031;28;20398;-76
2023/01/19 08:26:48;;;;;;;7.50;1.42;;;4.60;82.40;;;;;;5070786;28;20049;-76
2023/01/19 08:29:14;;;;;;;11.00;1.95;;;4.40;82.10;;;;;;5053782;28;20124;-77
2023/01/19 08:31:40;;;;;;;13.27;2.33;;;4.40;82.00;;;;;;5037697;28;20080;-76
2023/01/19 08:34:06;;;;;;;10.63;2.58;;;4.60;81.90;;;;;;5031006;28;20064;-76
2023/01/19 08:36:32;;;;;;;18.15;2.58;;;4.40;81.70;;;;;;5037173;28;20037;-76
2023/01/19 08:38:57;;;;;;;7.75;1.40;;;4.40;81.60;;;;;;5037201;28;20045;-76
2023/01/19 08:41:23;;;;;;;11.02;1.83;;;4.50;81.50;;;;;;5017058;28;20034;-76
2023/01/19 08:43:49;;;;;;;12.18;1.77;;;4.40;81.30;;;;;;5001204;28;20103;-76
2023/01/19 08:46:16;;;;;;;17.02;2.40;;;4.40;81.30;;;;;;5033627;28;20427;-76
2023/01/19 08:48:44;;;;;;;14.32;2.08;;;4.40;81.10;;;;;;5037023;28;20092;-76
2023/01/19 08:51:11;;;;;;;10.10;1.60;;;4.40;81.00;;;;;;5053893;28;20404;-76
2023/01/19 08:53:37;;;;;;;8.55;1.60;;;4.30;80.80;;;;;;5070145;28;20052;-76
2023/01/19 08:56:03;;;;;;;8.65;1.63;;;4.30;80.80;;;;;;5069422;28;20209;-76
2023/01/19 08:58:29;;;;;;;10.77;1.90;;;4.30;80.70;;;;;;5053373;28;20083;-76
2023/01/19 09:00:55;;;;;;;11.00;1.88;;;4.30;80.70;;;;;;5053428;28;20037;-76
2023/01/19 09:03:21;;;;;;;10.00;1.35;;;4.30;80.70;;;;;;5069902;28;20064;-76
2023/01/19 09:05:47;;;;;;;9.43;1.50;;;4.40;80.60;;;;;;5046202;28;20124;-76
2023/01/19 09:08:14;;;;;;;8.43;1.75;;;4.30;80.60;;;;;;5021632;28;20461;-76
2023/01/19 09:10:47;;;;;;;8.85;2.00;;;4.30;80.70;;;;;;5069537;28;20480;-76
2023/01/19 09:13:13;;;;;;;9.27;1.88;;;4.30;80.90;;;;;;5053046;28;20048;-76
2023/01/19 09:15:40;;;;;;;8.98;1.83;;;4.40;81.20;;;;;;5036631;28;20041;-76
2023/01/19 09:18:15;;;;;;;10.73;1.70;;;4.40;81.50;;;;;;5053248;28;20450;-76
2023/01/19 09:20:42;;;;;;;9.85;1.42;;;4.50;81.70;;;;;;5053315;28;20415;-76
2023/01/19 09:23:13;;;;;;;6.30;1.17;;;4.50;81.70;;;;;;5052206;28;20041;-76
2023/01/19 09:25:41;;;;;;;11.68;1.95;;;4.50;81.50;;;;;;5036390;28;20401;-76
2023/01/19 09:28:09;;;;;;;6.95;1.45;;;4.60;81.50;;;;;;5052596;28;20037;-76
2023/01/19 09:30:37;;;;;;;10.68;1.65;;;4.60;81.40;;;;;;5052715;28;20538;-76
2023/01/19 09:33:12;;;;;;;10.90;2.10;;;4.70;81.40;;;;;;5052614;28;20045;-76
2023/01/19 09:35:39;;;;;;;10.23;1.92;;;4.70;81.50;;;;;;5035896;28;20196;-76
2023/01/19 09:38:07;;;;;;;8.23;1.45;;;4.80;81.70;;;;;;5035855;28;20025;-76
2023/01/19 09:40:35;;;;;;;10.85;2.03;;;4.90;81.80;;;;;;5069297;28;20079;-75
2023/01/19 09:43:13;;;;;;;11.13;1.95;;;4.90;81.60;;;;;;5052275;28;20101;-75
2023/01/19 09:45:50;;;;;;;9.85;1.30;;;5.00;81.50;;;;;;5052783;28;20529;-76
2023/01/19 09:48:51;;;;;;;7.32;1.35;;;5.10;81.40;;;;;;5035828;28;20040;-75
2023/01/19 09:51:24;;;;;;;12.50;2.60;;;5.20;81.30;;;;;;5033717;28;20076;-75
2023/01/19 09:54:30;;;;;;;12.65;2.20;;;5.30;81.40;;;;;;5044269;28;20490;-75
2023/01/19 09:56:55;;;;;;;;;;;5.40;81.30;;;;;;5065743;28;20059;-75
2023/01/19 09:59:29;;;;;;;14.60;2.10;;;5.50;81.10;;;;;;5063923;28;20352;-75
2023/01/19 10:02:19;;;;;;;6.88;1.55;;;5.60;81.30;;;;;;5047005;28;20041;-75
2023/01/19 10:04:59;;;;;;;11.25;1.85;;;5.70;81.10;;;;;;5060828;28;20399;-75
2023/01/19 10:07:43;;;;;;;7.80;1.77;;;5.80;80.70;;;;;;5046722;28;20045;-75
2023/01/19 10:10:29;;;;;;;11.15;1.63;;;5.80;80.50;;;;;;5066512;28;20033;-75
2023/01/19 10:13:10;;;;;;;8.35;2.35;;;5.90;80.10;;;;;;5055384;28;20056;-75
2023/01/19 10:16:05;;;;;;;13.38;1.88;;;6.00;79.70;;;;;;5060292;28;20033;-75
2023/01/19 10:18:46;;;;;;;12.57;2.58;;;6.10;79.30;;;;;;5072104;28;20041;-75
2023/01/19 10:21:22;;;;;;;12.55;1.83;;;6.10;79.20;;;;;;5057505;28;20044;-76
2023/01/19 10:24:11;;;;;;;8.48;1.98;;;6.40;79.20;;;;;;5041842;28;20089;-75
2023/01/19 10:26:45;;;;;;;11.43;1.65;;;6.20;78.80;;;;;;5058922;28;20036;-75
2023/01/19 10:29:33;;;;;;;9.40;1.52;;;6.30;78.60;;;;;;5060376;28;20133;-75
2023/01/19 10:32:20;;;;;;;7.13;1.67;;;6.30;78.40;;;;;;5059876;28;20491;-75
2023/01/19 10:34:46;;;;;;;7.18;1.30;;;6.40;78.20;;;;;;5058163;28;20045;-76
2023/01/19 10:37:21;;;;;;;6.80;1.35;;;6.40;78.00;;;;;;5059779;28;20036;-75
2023/01/19 10:40:01;;;;;;;10.32;1.70;;;6.40;77.40;;;;;;5043039;28;20050;-75
2023/01/19 10:42:28;;;;;;;5.65;1.25;;;6.40;77.20;;;;;;5059068;28;20040;-75
2023/01/19 10:44:54;;;;;;;7.03;1.58;;;6.50;76.80;;;;;;5043094;28;20383;-75
2023/01/19 10:47:29;;;;;;;7.72;1.15;;;6.50;76.60;;;;;;5040018;28;20044;-81
2023/01/19 10:49:55;;;;;;;6.65;2.03;;;6.50;76.40;;;;;;5054631;28;20068;-80
2023/01/19 10:52:34;;;;;;;13.15;1.60;;;6.50;76.10;;;;;;5040181;28;20067;-80
2023/01/19 10:55:02;;;;;;;10.52;1.60;;;6.60;75.80;;;;;;5057817;28;20045;-81
2023/01/19 10:57:31;;;;;;;8.65;1.33;;;6.60;75.50;;;;;;5057681;28;20075;-81
2023/01/19 10:59:58;;;;;;;8.15;1.30;;;6.60;75.10;;;;;;5041260;28;20037;-80
2023/01/19 11:02:28;;;;;;;9.30;1.92;;;6.60;74.70;;;;;;5067881;28;20039;-81
2023/01/19 11:05:00;;;;;;;7.82;1.45;;;6.60;74.50;;;;;;5058890;28;20049;-80
2023/01/19 11:07:25;;;;;;;9.88;1.98;;;6.60;73.90;;;;;;5056888;28;20123;-81
2023/01/19 11:10:10;;;;;;;8.80;1.10;;;6.60;73.90;;;;;;5040637;28;20127;-81
2023/01/19 11:12:59;;;;;;;6.03;1.10;;;6.60;73.60;;;;;;5043476;28;20127;-80
2023/01/19 11:15:45;;;;;;;8.73;1.35;;;6.60;73.60;;;;;;5056903;28;20048;-80
2023/01/19 11:18:30;;;;;;;6.30;1.27;;;6.60;73.60;;;;;;5056632;28;20044;-80
2023/01/19 11:21:01;;;;;;;7.65;1.40;;;6.60;72.60;;;;;;5040484;28;20116;-80
2023/01/19 11:23:35;;;;;;;6.70;1.15;;;6.60;72.90;;;;;;5039677;28;20479;-80
2023/01/19 11:26:04;;;;;;;7.93;1.48;;;6.50;72.60;;;;;;5039665;28;20447;-80
2023/01/19 11:28:34;;;;;;;9.57;1.27;;;6.50;72.60;;;;;;5056013;28;20090;-81
2023/01/19 11:31:15;;;;;;;6.18;1.75;;;6.50;72.80;;;;;;5035192;28;20499;-81
2023/01/19 11:33:45;;;;;;;6.95;1.40;;;6.50;72.70;;;;;;5060723;28;20033;-81
2023/01/19 11:36:17;;;;;;;7.50;1.23;;;6.50;72.50;;;;;;5060482;28;20045;-80
2023/01/19 11:38:45;;;;;;;8.52;1.20;;;6.50;72.10;;;;;;5042464;28;21331;-81
2023/01/19 11:41:20;;;;;;;6.18;1.13;;;6.50;72.10;;;;;;5060394;28;20041;-80
2023/01/19 11:43:52;;;;;;;6.63;1.13;;;6.40;71.40;;;;;;5058938;28;20045;-80
2023/01/19 11:46:18;;;;;;;5.32;0.82;;;6.40;71.20;;;;;;5055024;28;20480;-81
2023/01/19 11:49:00;;;;;;;6.88;1.20;;;6.40;71.40;;;;;;5038342;28;20118;-80
2023/01/19 11:51:34;;;;;;;6.78;1.27;;;6.30;71.00;;;;;;5038300;28;20049;-81
2023/01/19 11:54:06;;;;;;;9.57;1.67;;;6.30;70.80;;;;;;5054600;28;20396;-80
2023/01/19 11:56:32;;;;;;;6.85;1.08;;;6.20;70.70;;;;;;5071549;28;20295;-80
2023/01/19 11:58:58;;;;;;;6.57;0.77;;;6.20;70.70;;;;;;5054957;28;20369;-80
2023/01/19 12:01:28;;;;;;;7.78;1.30;;;6.10;70.60;;;;;;5038176;28;20067;-80
2023/01/19 12:04:00;;;;;;;8.43;1.00;;;6.10;70.60;;;;;;5071133;28;20060;-81
2023/01/19 12:06:31;;;;;;;7.78;1.67;;;6.10;70.60;;;;;;5038128;28;20059;-81
2023/01/19 12:09:11;;;;;;;4.68;0.82;;;6.20;70.70;;;;;;5038326;28;20384;-81
2023/01/19 12:11:42;;;;;;;5.45;0.90;;;6.00;70.80;;;;;;5038104;28;20044;-81
2023/01/19 12:14:21;;;;;;;6.28;1.23;;;5.90;71.30;;;;;;5054494;28;20045;-80
2023/01/19 12:16:50;;;;;;;7.38;0.88;;;5.90;71.00;;;;;;5054836;28;20388;-81
2023/01/19 12:19:22;;;;;;;5.10;1.05;;;5.80;71.40;;;;;;5054501;28;20048;-81
2023/01/19 12:21:48;;;;;;;8.23;1.10;;;5.80;71.70;;;;;;5038016;28;20071;-81
2023/01/19 12:24:34;;;;;;;6.10;1.20;;;5.80;72.00;;;;;;5054489;28;20044;-81
2023/01/19 12:27:06;;;;;;;6.05;1.20;;;5.80;72.10;;;;;;5037804;28;20091;-81
2023/01/19 12:29:34;;;;;;;4.50;0.80;;;5.70;72.30;;;;;;5037746;28;20048;-81
2023/01/19 12:32:12;;;;;;;8.23;0.98;;;5.70;72.40;;;;;;5037968;28;20554;-81
2023/01/19 12:34:48;;;;;;;10.45;1.25;;;5.80;72.70;;;;;;5054203;28;20397;-81
2023/01/19 12:37:40;;;;;;;9.55;1.00;;;5.70;73.00;;;;;;5071022;28;20079;-81
2023/01/19 12:40:17;;;;;;;8.02;1.13;;;5.70;73.00;;;;;;5070980;28;20072;-80
2023/01/19 12:42:46;;;;;;;5.95;1.23;;;5.70;73.00;;;;;;5037024;28;20040;-81
2023/01/19 12:45:15;;;;;;;11.52;1.67;;;5.70;73.20;;;;;;5069813;28;20114;-81
2023/01/19 12:47:51;;;;;;;10.23;1.70;;;5.80;73.40;;;;;;5054129;28;20037;-81
2023/01/19 12:50:19;;;;;;;6.18;1.25;;;5.70;73.30;;;;;;5062692;28;20099;-81
2023/01/19 12:52:56;;;;;;;3.90;0.90;;;5.80;73.60;;;;;;5050993;28;20052;-81
2023/01/19 12:55:30;;;;;;;6.78;1.05;;;5.80;73.60;;;;;;5050597;28;20042;-81
2023/01/19 12:58:17;;;;;;;3.30;0.88;;;5.80;73.60;;;;;;5050417;28;20041;-76
2023/01/19 13:00:47;;;;;;;4.50;0.63;;;5.80;72.70;;;;;;5052332;28;20045;-76
2023/01/19 13:03:33;;;;;;;4.15;0.75;;;5.80;72.00;;;;;;5053244;28;20057;-76
2023/01/19 13:05:59;;;;;;;3.38;0.60;;;5.80;70.90;;;;;;5053287;28;20092;-76
2023/01/19 13:08:29;;;;;;;2.60;0.77;;;5.80;71.00;;;;;;5053492;28;20100;-76
2023/01/19 13:11:01;;;;;;;5.68;0.68;;;5.80;70.90;;;;;;5053178;28;20040;-76
2023/01/19 13:13:43;;;;;;;5.28;0.80;;;5.70;70.90;;;;;;5053344;28;20412;-75
2023/01/19 13:16:19;;;;;;;4.68;0.82;;;5.70;71.00;;;;;;5053132;28;20451;-75
2023/01/19 13:18:58;;;;;;;4.00;0.88;;;5.70;71.30;;;;;;5052834;28;20033;-76